バマコ の空港の天気 - METARとTAF

バマコ・セヌー国際空港 ( GABS / BKO ) - マリ バマコ
飛行場実況気象(Metar)
観測時間08/17 11:30 GMT (08/17 11:30 UTC)
風向・風速西 3m/s
視程10km以上
天気現象
全天の4割程度の雲 雲底高度 610m
気温29℃
湿度70%
気圧1016hPa
METARGABS 171130Z 28005KT 220V330 9999 SCT020 29/23 Q1016 NOSIG
過去の天気等 Google飛行場航空写真 Wunderground天気予報

過去48時間のMETAR

飛行場予報(TAF)
発表時間: 8/17 05:30 GMT (8/17 05:30 UTC)
予報対象時間: 17日6時 GMT ~ 18日12時 GMT
風向・風速西 4m/s
視程10km以上
全天の4割程度の雲 雲底高度 610m
17日6時 GMT ~ 17日10時 GMT に 確率 30% で一時的に
風向・風速不定 8m/s 瞬間風速 13m/s
視程4500m
天気現象雷 しゅう雨
全天の4割程度の雲 雲底高度 610m
少しの積乱雲 雲底高度 910m
17日12時 GMT ~ 17日18時 GMT に 確率 40% で一時的に
風向・風速不定 8m/s 瞬間風速 13m/s
視程4000m
天気現象雷雨
全天の4割程度の雲 雲底高度 610m
全天の4割程度の積乱雲 雲底高度 910m
17日23時 GMT ~ 18日9時 GMT に 確率 40% で一時的に
風向・風速東 10m/s 瞬間風速 18m/s
視程4000m
天気現象雷雨
全天の4割程度の雲 雲底高度 610m
少しの積乱雲 雲底高度 910m
TAF GABS 170530Z 1706/1812 26008KT 9999 SCT020
PROB30 TEMPO 1706/1710 VRB15G25KT 4500 TS SHRA SCT020 FEW030CB
PROB40 TEMPO 1712/1718 VRB16G26KT 4000 TSRA SCT020 SCT030CB
PROB40 TEMPO 1723/1809 08020G35KT 4000 TSRA SCT020 FEW030CB